Time;durP1;ratioP1;P1;durP2;ratioP2;P2;SDS_P1;SDS_P2;PMS_P1;PMS_P2;Temp;Humidity;BMP_temperature;BMP_pressure;BME280_temperature;BME280_humidity;BME280_pressure;Samples;Min_cycle;Max_cycle;Signal;HPM_P1;HPM_P2
2022/05/04 00:01:56;;;;;;;2.38;1.30;;;19.50;49.70;;;;;;4499031;31;20136;-66
2022/05/04 00:04:22;;;;;;;5.63;1.30;;;19.50;48.80;;;;;;4498627;31;20576;-66
2022/05/04 00:06:48;;;;;;;4.00;1.35;;;19.50;48.80;;;;;;4499411;31;20508;-66
2022/05/04 00:09:13;;;;;;;4.30;1.33;;;19.50;48.80;;;;;;4498239;31;20266;-66
2022/05/04 00:11:40;;;;;;;3.75;1.33;;;19.50;48.80;;;;;;4499233;31;20169;-66
2022/05/04 00:14:06;;;;;;;4.43;1.00;;;19.50;48.80;;;;;;4498321;31;20135;-66
2022/05/04 00:16:32;;;;;;;5.07;1.35;;;19.50;48.80;;;;;;4498798;31;20129;-66
2022/05/04 00:18:57;;;;;;;3.50;1.15;;;19.50;48.80;;;;;;4498428;31;20195;-66
2022/05/04 00:21:23;;;;;;;3.13;1.17;;;19.50;48.70;;;;;;4498525;31;20132;-66
2022/05/04 00:23:49;;;;;;;5.82;1.40;;;19.50;48.80;;;;;;4499100;31;20120;-66
2022/05/04 00:26:15;;;;;;;4.45;1.23;;;19.50;48.80;;;;;;4496825;31;20133;-66
2022/05/04 00:28:41;;;;;;;4.45;1.40;;;19.50;48.70;;;;;;4498458;31;20136;-66
2022/05/04 00:31:06;;;;;;;3.35;1.05;;;19.50;48.70;;;;;;4497796;31;20199;-66
2022/05/04 00:33:32;;;;;;;5.22;1.33;;;19.40;48.70;;;;;;4498668;31;20139;-66
2022/05/04 00:35:58;;;;;;;4.57;1.15;;;19.40;49.60;;;;;;4498173;31;20124;-66
2022/05/04 00:38:25;;;;;;;3.33;1.25;;;19.40;48.70;;;;;;4497158;31;20198;-66
2022/05/04 00:40:50;;;;;;;5.22;1.45;;;19.40;48.70;;;;;;4498741;31;20273;-66
2022/05/04 00:43:24;;;;;;;4.05;1.30;;;19.40;48.70;;;;;;4497895;31;20125;-66
2022/05/04 00:45:50;;;;;;;3.50;1.05;;;19.40;48.60;;;;;;4498402;31;20222;-66
2022/05/04 00:48:17;;;;;;;3.40;1.20;;;19.40;48.70;;;;;;4496763;31;20203;-66
2022/05/04 00:50:44;;;;;;;3.30;1.35;;;19.40;48.70;;;;;;4498311;31;20143;-66
2022/05/04 00:53:11;;;;;;;3.08;1.05;;;19.40;48.70;;;;;;4498157;31;20109;-66
2022/05/04 00:55:37;;;;;;;3.83;1.13;;;19.40;48.80;;;;;;4497779;31;20274;-66
2022/05/04 01:00:51;;;;;;;5.18;1.40;;;19.40;48.70;;;;;;4497552;31;20168;-66
2022/05/04 01:03:17;;;;;;;1.95;0.90;;;19.40;48.80;;;;;;4497473;31;20470;-66
2022/05/04 01:05:44;;;;;;;4.63;1.15;;;19.40;48.70;;;;;;4497526;31;20189;-66
2022/05/04 01:08:24;;;;;;;2.85;0.98;;;19.40;48.70;;;;;;4498069;31;20124;-66
2022/05/04 01:10:50;;;;;;;2.53;1.13;;;19.40;48.80;;;;;;4498220;31;20197;-66
2022/05/04 01:13:19;;;;;;;3.97;1.20;;;19.30;48.70;;;;;;4497477;31;20167;-66
2022/05/04 01:15:46;;;;;;;3.92;1.23;;;19.30;48.70;;;;;;4497967;31;20147;-66
2022/05/04 01:18:11;;;;;;;3.03;1.00;;;19.30;48.70;;;;;;4497369;31;20247;-66
2022/05/04 01:20:37;;;;;;;5.55;1.20;;;19.30;48.70;;;;;;4498103;31;20143;-66
2022/05/04 01:23:03;;;;;;;2.65;1.20;;;19.30;48.70;;;;;;4497458;31;20126;-66
2022/05/04 01:25:29;;;;;;;3.70;1.10;;;19.30;48.70;;;;;;4497533;31;20139;-66
2022/05/04 01:27:55;;;;;;;4.13;1.02;;;19.30;48.80;;;;;;4497931;31;20216;-66
2022/05/04 01:30:22;;;;;;;2.42;1.10;;;19.30;48.80;;;;;;4497176;31;20364;-66
2022/05/04 01:32:47;;;;;;;2.50;0.98;;;19.30;48.80;;;;;;4498163;31;20125;-66
2022/05/04 01:35:14;;;;;;;3.83;1.20;;;19.30;48.80;;;;;;4497342;31;20151;-66
2022/05/04 01:37:41;;;;;;;3.25;1.10;;;19.30;48.90;;;;;;4497359;31;20124;-66
2022/05/04 01:40:08;;;;;;;3.25;0.90;;;19.30;48.90;;;;;;4497017;31;20194;-66
2022/05/04 01:42:34;;;;;;;2.67;0.82;;;19.30;48.90;;;;;;4497595;31;20137;-66
2022/05/04 01:45:04;;;;;;;2.45;0.95;;;19.30;48.90;;;;;;4496703;31;20213;-66
2022/05/04 01:47:30;;;;;;;3.33;1.20;;;19.30;48.90;;;;;;4496821;31;20574;-66
2022/05/04 01:49:56;;;;;;;2.92;0.93;;;19.20;48.90;;;;;;4497884;32;20129;-66
2022/05/04 01:52:22;;;;;;;2.38;0.90;;;19.30;48.90;;;;;;4497231;32;20151;-66
2022/05/04 01:54:48;;;;;;;2.83;0.90;;;19.20;48.90;;;;;;4497716;32;20135;-66
2022/05/04 01:57:14;;;;;;;2.65;0.93;;;19.20;48.90;;;;;;4495991;31;20125;-65
2022/05/04 01:59:39;;;;;;;2.47;0.90;;;19.20;48.90;;;;;;4497585;31;20142;-66
2022/05/04 02:02:07;;;;;;;3.25;0.80;;;19.20;48.90;;;;;;4497579;31;20131;-66
2022/05/04 02:04:34;;;;;;;2.38;0.90;;;19.20;48.90;;;;;;4497079;31;20136;-66
2022/05/04 02:07:01;;;;;;;2.92;1.08;;;19.20;49.00;;;;;;4497888;32;20640;-66
2022/05/04 02:09:27;;;;;;;3.03;0.73;;;19.20;49.00;;;;;;4496789;31;20625;-65
2022/05/04 02:11:53;;;;;;;2.70;0.80;;;19.20;49.00;;;;;;4497838;32;20121;-66
2022/05/04 02:14:25;;;;;;;3.50;0.93;;;19.20;49.00;;;;;;4496949;31;20531;-66
2022/05/04 02:16:51;;;;;;;2.03;0.70;;;19.20;49.10;;;;;;4497111;31;20274;-66
2022/05/04 02:19:16;;;;;;;1.58;0.80;;;19.20;49.00;;;;;;4497441;31;20128;-66
2022/05/04 02:21:42;;;;;;;2.08;0.88;;;19.20;49.00;;;;;;4496832;32;20515;-66
2022/05/04 02:24:08;;;;;;;1.77;0.80;;;19.20;49.00;;;;;;4497828;32;20135;-66
2022/05/04 02:26:34;;;;;;;2.55;1.00;;;19.10;49.00;;;;;;4496816;31;20135;-66
2022/05/04 02:29:00;;;;;;;1.98;0.70;;;19.10;49.00;;;;;;4497538;32;20113;-66
2022/05/04 02:31:27;;;;;;;2.58;0.98;;;19.10;49.00;;;;;;4496743;31;20128;-66
2022/05/04 02:33:53;;;;;;;4.00;0.77;;;19.10;49.00;;;;;;4497388;31;20130;-66
2022/05/04 02:39:03;;;;;;;1.60;0.70;;;19.10;49.00;;;;;;4496641;31;20143;-66
2022/05/04 02:41:30;;;;;;;2.00;0.85;;;19.10;49.00;;;;;;4497456;31;20140;-66
2022/05/04 02:43:56;;;;;;;1.73;0.75;;;19.10;49.00;;;;;;4496716;32;20486;-66
2022/05/04 02:46:23;;;;;;;2.70;0.82;;;19.10;49.00;;;;;;4496793;31;20151;-66
2022/05/04 02:48:48;;;;;;;1.83;0.65;;;19.10;49.00;;;;;;4497122;31;20121;-67
2022/05/04 02:51:14;;;;;;;2.53;0.70;;;19.10;49.00;;;;;;4496975;32;20151;-66
2022/05/04 02:53:41;;;;;;;1.15;0.60;;;19.10;49.00;;;;;;4499211;31;20117;-66
2022/05/04 02:56:08;;;;;;;1.98;0.90;;;19.10;49.00;;;;;;4499312;31;20129;-66
2022/05/04 02:58:34;;;;;;;1.52;0.90;;;19.10;49.00;;;;;;4500292;31;20183;-66
2022/05/04 03:04:11;;;;;;;3.08;0.82;;;19.10;49.00;;;;;;4499568;31;20136;-66
2022/05/04 03:06:39;;;;;;;2.20;0.60;;;19.10;49.00;;;;;;4500206;31;20147;-66
2022/05/04 03:09:06;;;;;;;1.90;0.90;;;19.10;49.10;;;;;;4499237;31;20554;-66
2022/05/04 03:14:20;;;;;;;1.75;0.70;;;19.00;49.00;;;;;;4499229;31;20148;-66
2022/05/04 03:16:47;;;;;;;1.40;0.60;;;19.00;49.10;;;;;;4499449;31;20137;-66
2022/05/04 03:19:14;;;;;;;1.52;0.70;;;19.00;49.10;;;;;;4500000;31;20459;-66
2022/05/04 03:21:40;;;;;;;1.80;0.60;;;19.00;49.10;;;;;;4498076;31;20125;-66
2022/05/04 03:24:06;;;;;;;1.45;0.77;;;19.00;49.20;;;;;;4500088;31;20299;-66
2022/05/04 03:26:32;;;;;;;2.13;0.85;;;19.00;49.20;;;;;;4498918;31;20489;-66
2022/05/04 03:28:58;;;;;;;1.95;0.70;;;19.00;49.20;;;;;;4498756;31;20195;-66
2022/05/04 03:31:24;;;;;;;2.97;0.80;;;19.00;49.20;;;;;;4498889;31;20246;-66
2022/05/04 03:33:50;;;;;;;1.95;0.70;;;19.00;49.20;;;;;;4499516;31;20275;-66
2022/05/04 03:36:16;;;;;;;1.80;0.70;;;19.00;49.20;;;;;;4499616;31;20144;-66
2022/05/04 03:38:44;;;;;;;1.08;0.70;;;19.00;49.20;;;;;;4498976;31;20121;-66
2022/05/04 03:41:10;;;;;;;1.80;0.70;;;19.00;49.30;;;;;;4499811;31;20200;-66
2022/05/04 03:43:37;;;;;;;2.35;0.63;;;19.00;49.30;;;;;;4498673;31;20132;-66
2022/05/04 03:46:12;;;;;;;1.70;0.73;;;19.00;49.40;;;;;;4499101;31;20148;-65
2022/05/04 03:48:38;;;;;;;1.63;0.65;;;18.90;49.30;;;;;;4498987;31;20152;-66
2022/05/04 03:51:04;;;;;;;1.63;0.63;;;19.00;49.30;;;;;;4499122;31;20190;-66
2022/05/04 03:53:30;;;;;;;1.70;0.82;;;18.90;49.30;;;;;;4498344;31;20128;-66
2022/05/04 03:55:56;;;;;;;1.15;0.60;;;18.90;49.30;;;;;;4498571;31;20135;-66
2022/05/04 03:58:22;;;;;;;1.00;0.40;;;18.90;49.30;;;;;;4499628;31;20246;-66
2022/05/04 04:00:48;;;;;;;1.60;0.80;;;18.90;49.40;;;;;;4498598;31;20187;-66
2022/05/04 04:03:14;;;;;;;1.25;0.60;;;18.90;49.40;;;;;;4498985;31;20197;-66
2022/05/04 04:05:40;;;;;;;1.33;0.60;;;18.90;49.40;;;;;;4498450;31;20226;-66
2022/05/04 04:08:06;;;;;;;2.72;0.80;;;18.90;49.40;;;;;;4498917;31;20548;-65
2022/05/04 04:10:32;;;;;;;2.67;0.80;;;18.90;49.40;;;;;;4498921;31;20514;-66
2022/05/04 04:12:58;;;;;;;0.57;0.43;;;18.90;49.50;;;;;;4498491;31;20151;-66
2022/05/04 04:15:24;;;;;;;1.60;0.65;;;18.90;49.50;;;;;;4499446;31;20121;-65
2022/05/04 04:17:49;;;;;;;1.27;0.70;;;18.90;49.50;;;;;;4497836;31;20136;-66
2022/05/04 04:23:01;;;;;;;2.25;0.75;;;18.90;49.50;;;;;;4498250;31;20121;-66
2022/05/04 04:25:26;;;;;;;1.52;0.55;;;18.90;49.50;;;;;;4498407;31;20138;-66
2022/05/04 04:27:52;;;;;;;1.38;0.68;;;18.90;49.50;;;;;;4498189;31;20124;-66
2022/05/04 04:30:18;;;;;;;0.85;0.60;;;18.90;49.60;;;;;;4497377;31;20124;-66
2022/05/04 04:32:44;;;;;;;1.92;0.50;;;18.90;49.60;;;;;;4498415;31;20131;-66
2022/05/04 04:35:10;;;;;;;1.90;0.75;;;18.90;49.60;;;;;;4498366;31;20140;-66
2022/05/04 04:37:36;;;;;;;2.03;0.68;;;18.80;49.50;;;;;;4498033;31;20117;-66
2022/05/04 04:40:02;;;;;;;2.03;0.52;;;18.80;49.60;;;;;;4496311;31;20109;-66
2022/05/04 04:42:28;;;;;;;1.17;0.65;;;18.80;49.50;;;;;;4497662;31;20176;-65
2022/05/04 04:44:54;;;;;;;0.82;0.40;;;18.80;49.50;;;;;;4497905;31;20290;-66
2022/05/04 04:47:20;;;;;;;0.98;0.55;;;18.80;49.60;;;;;;4498874;31;20143;-65
2022/05/04 04:49:46;;;;;;;1.73;0.60;;;18.80;49.50;;;;;;4498148;31;20147;-67
2022/05/04 04:52:12;;;;;;;1.63;0.60;;;18.80;49.50;;;;;;4496994;31;20136;-66
2022/05/04 04:54:38;;;;;;;1.35;0.60;;;18.80;49.60;;;;;;4497888;31;20151;-66
2022/05/04 04:57:04;;;;;;;1.80;0.65;;;18.80;49.60;;;;;;4497343;31;20178;-66
2022/05/04 04:59:30;;;;;;;1.17;0.68;;;18.80;49.60;;;;;;4497551;31;20136;-66
2022/05/04 05:01:55;;;;;;;1.70;0.63;;;18.80;49.60;;;;;;4511449;31;20166;-66
2022/05/04 05:04:21;;;;;;;1.40;0.50;;;18.80;49.60;;;;;;4512963;31;20270;-66
2022/05/04 05:06:47;;;;;;;1.10;0.35;;;18.80;49.60;;;;;;4513856;31;20173;-65
2022/05/04 05:09:13;;;;;;;2.35;0.70;;;18.80;49.60;;;;;;4512919;31;20241;-67
2022/05/04 05:11:39;;;;;;;1.20;0.50;;;18.80;49.60;;;;;;4511093;31;20241;-67
2022/05/04 05:16:49;;;;;;;1.38;0.60;;;18.80;49.60;;;;;;4511253;31;20140;-66
2022/05/04 05:19:15;;;;;;;1.77;0.63;;;18.80;49.60;;;;;;4513845;31;20111;-66
2022/05/04 05:21:41;;;;;;;1.75;0.70;;;18.80;49.60;;;;;;4500204;31;20113;-66
2022/05/04 05:24:07;;;;;;;1.50;0.40;;;18.70;49.60;;;;;;4497627;31;20182;-67
2022/05/04 05:26:33;;;;;;;0.95;0.50;;;18.70;49.60;;;;;;4496452;31;20144;-66
2022/05/04 05:28:59;;;;;;;0.85;0.43;;;18.70;49.60;;;;;;4496582;31;20152;-66
2022/05/04 05:31:25;;;;;;;0.63;0.40;;;18.80;49.70;;;;;;4496755;31;20254;-66
2022/05/04 05:33:51;;;;;;;1.30;0.50;;;18.70;49.60;;;;;;4497142;31;20147;-65
2022/05/04 05:36:17;;;;;;;0.73;0.40;;;18.70;49.70;;;;;;4497341;31;20129;-65
2022/05/04 05:38:43;;;;;;;4.03;0.75;;;18.70;49.70;;;;;;4496698;31;20205;-65
2022/05/04 05:41:09;;;;;;;2.50;0.60;;;18.70;49.50;;;;;;4497769;31;20242;-65
2022/05/04 05:43:34;;;;;;;2.30;0.60;;;18.70;48.80;;;;;;4496919;31;20501;-65
2022/05/04 05:46:01;;;;;;;4.03;0.80;;;18.70;48.10;;;;;;4497559;31;20774;-64
2022/05/04 05:48:27;;;;;;;1.83;0.65;;;18.70;47.80;;;;;;4497004;31;20139;-64
2022/05/04 05:50:53;;;;;;;1.88;0.70;;;18.70;48.20;;;;;;4497250;31;20270;-64
2022/05/04 05:53:19;;;;;;;3.78;0.75;;;18.60;48.50;;;;;;4497117;31;20148;-64
2022/05/04 05:55:45;;;;;;;3.67;0.93;;;18.60;48.70;;;;;;4495463;31;20124;-65
2022/05/04 05:58:11;;;;;;;1.92;0.80;;;18.70;48.80;;;;;;4497590;31;20121;-64
2022/05/04 06:00:37;;;;;;;3.47;0.80;;;18.60;48.90;;;;;;4496573;31;20185;-65
2022/05/04 06:03:03;;;;;;;1.90;0.77;;;18.60;49.00;;;;;;4497859;32;20214;-64
2022/05/04 06:05:29;;;;;;;4.75;0.73;;;18.60;49.10;;;;;;4496757;32;20136;-64
2022/05/04 06:07:55;;;;;;;2.35;0.85;;;18.60;49.10;;;;;;4497548;31;20180;-63
2022/05/04 06:10:21;;;;;;;2.90;0.45;;;18.60;49.20;;;;;;4497365;32;20271;-65
2022/05/04 06:12:47;;;;;;;4.38;0.80;;;18.60;49.30;;;;;;4497163;31;20142;-65
2022/05/04 06:15:14;;;;;;;2.45;0.80;;;18.60;49.40;;;;;;4497991;31;20089;-65
2022/05/04 06:17:41;;;;;;;3.70;0.90;;;18.60;49.40;;;;;;4496533;31;20391;-65
2022/05/04 06:20:07;;;;;;;3.00;0.70;;;18.70;49.50;;;;;;4497833;32;20117;-65
2022/05/04 06:22:34;;;;;;;2.35;0.60;;;18.60;49.40;;;;;;4496744;31;20116;-65
2022/05/04 06:24:59;;;;;;;1.52;0.65;;;18.60;49.40;;;;;;4497481;31;20614;-65
2022/05/04 06:27:28;;;;;;;2.85;1.02;;;18.60;49.40;;;;;;4497386;31;20168;-65
2022/05/04 06:35:24;;;;;;;2.85;0.80;;;18.60;49.40;;;;;;4498902;31;20135;-66
2022/05/04 06:37:49;;;;;;;4.53;1.00;;;18.60;49.40;;;;;;4500405;31;20125;-66
2022/05/04 06:40:15;;;;;;;3.47;0.77;;;18.60;50.00;;;;;;4500153;31;20153;-66
2022/05/04 06:42:41;;;;;;;4.20;1.15;;;18.60;48.80;;;;;;4499792;31;20283;-66
2022/05/04 06:45:07;;;;;;;6.38;1.60;;;18.60;48.10;;;;;;4500594;31;20129;-65
2022/05/04 06:47:35;;;;;;;11.63;1.60;;;18.60;47.50;;;;;;4498915;31;20274;-66
2022/05/04 06:50:03;;;;;;;13.18;1.92;;;18.60;47.40;;;;;;4499514;31;20141;-66
2022/05/04 06:52:33;;;;;;;10.20;1.33;;;18.50;47.20;;;;;;4505618;31;20237;-65
2022/05/04 06:54:59;;;;;;;9.75;1.55;;;18.50;47.50;;;;;;4499638;31;20727;-65
2022/05/04 06:57:25;;;;;;;7.82;1.50;;;18.50;47.80;;;;;;4498544;31;20140;-67
2022/05/04 06:59:50;;;;;;;7.20;1.48;;;18.50;48.10;;;;;;4499294;31;20131;-66
2022/05/04 07:02:17;;;;;;;6.88;1.38;;;18.50;48.30;;;;;;4498942;31;20179;-65
2022/05/04 07:04:43;;;;;;;5.55;1.20;;;18.50;48.50;;;;;;4499355;31;20205;-65
2022/05/04 07:07:09;;;;;;;6.60;1.40;;;18.50;48.60;;;;;;4499371;31;20494;-65
2022/05/04 07:09:34;;;;;;;7.13;1.33;;;18.60;48.80;;;;;;4498636;31;20117;-64
2022/05/04 07:12:00;;;;;;;8.05;1.45;;;18.60;48.90;;;;;;4499876;31;20128;-65
2022/05/04 07:14:26;;;;;;;7.30;1.80;;;18.50;49.10;;;;;;4499535;31;20128;-64
2022/05/04 07:16:52;;;;;;;9.90;1.80;;;18.50;49.30;;;;;;4498101;31;20171;-64
2022/05/04 07:19:18;;;;;;;4.50;1.52;;;18.60;49.40;;;;;;4501957;31;20144;-64
2022/05/04 07:21:45;;;;;;;6.30;1.60;;;18.50;49.40;;;;;;4513859;31;20497;-63
2022/05/04 07:24:11;;;;;;;7.38;1.50;;;18.50;49.40;;;;;;4515973;31;20194;-63
2022/05/04 07:26:38;;;;;;;5.63;1.30;;;18.50;49.30;;;;;;4512827;31;20270;-66
2022/05/04 07:29:04;;;;;;;7.03;1.63;;;18.50;49.30;;;;;;4499380;31;20191;-64
2022/05/04 07:31:30;;;;;;;5.95;1.45;;;18.50;49.30;;;;;;4499144;31;20148;-62
2022/05/04 07:33:56;;;;;;;7.43;1.17;;;18.60;49.30;;;;;;4499350;31;20113;-63
2022/05/04 07:36:22;;;;;;;6.72;1.70;;;18.50;49.30;;;;;;4499673;31;20132;-62
2022/05/04 07:38:48;;;;;;;5.55;1.50;;;18.60;49.30;;;;;;4498568;31;20264;-63
2022/05/04 07:43:59;;;;;;;8.43;1.48;;;18.60;49.20;;;;;;4499184;31;20136;-63
2022/05/04 07:46:27;;;;;;;6.75;1.33;;;18.60;49.30;;;;;;4498886;31;20627;-64
2022/05/04 07:48:55;;;;;;;9.75;1.60;;;18.60;49.40;;;;;;4499346;31;20191;-64
2022/05/04 07:51:21;;;;;;;5.60;1.35;;;18.60;49.50;;;;;;4498873;31;20112;-63
2022/05/04 07:53:47;;;;;;;3.65;1.20;;;18.60;49.60;;;;;;4499630;31;20314;-63
2022/05/04 07:56:13;;;;;;;7.45;1.50;;;18.60;50.60;;;;;;4498546;31;20258;-63
2022/05/04 07:58:39;;;;;;;8.98;1.90;;;18.60;49.60;;;;;;4499179;31;20270;-63
2022/05/04 08:06:34;;;;;;;5.85;1.45;;;18.60;49.40;;;;;;4515206;31;20233;-63
2022/05/04 08:09:00;;;;;;;7.82;1.40;;;18.60;49.40;;;;;;4513069;31;20286;-64
2022/05/04 08:11:25;;;;;;;13.45;1.85;;;18.60;49.40;;;;;;4515272;31;20510;-64
2022/05/04 08:13:51;;;;;;;4.13;1.40;;;18.60;49.40;;;;;;4514275;31;20560;-63
2022/05/04 08:16:18;;;;;;;3.88;1.38;;;18.60;49.00;;;;;;4512495;31;20576;-62
2022/05/04 08:18:44;;;;;;;9.90;1.70;;;18.60;48.40;;;;;;4497874;31;20141;-62
2022/05/04 08:21:10;;;;;;;6.68;1.48;;;18.60;47.70;;;;;;4497978;31;20164;-62
2022/05/04 08:23:39;;;;;;;7.03;1.45;;;18.60;47.50;;;;;;4500768;31;20278;-63
2022/05/04 08:26:04;;;;;;;7.82;1.38;;;18.60;47.80;;;;;;4497528;31;20686;-62
2022/05/04 08:28:31;;;;;;;8.75;1.48;;;18.60;46.40;;;;;;4498371;31;20175;-62
2022/05/04 08:31:00;;;;;;;6.20;1.23;;;18.50;46.00;;;;;;4497653;31;20238;-63
2022/05/04 08:33:26;;;;;;;7.68;1.60;;;18.50;45.80;;;;;;4498530;31;20504;-62
2022/05/04 08:35:52;;;;;;;6.25;1.63;;;18.50;45.40;;;;;;4498233;31;20120;-62
2022/05/04 08:38:18;;;;;;;10.18;2.08;;;18.50;45.20;;;;;;4498132;31;20132;-62
2022/05/04 08:40:44;;;;;;;6.43;1.70;;;18.50;45.00;;;;;;4498918;31;20270;-62
2022/05/04 08:43:12;;;;;;;9.32;1.80;;;18.50;44.80;;;;;;4497531;31;20215;-62
2022/05/04 08:45:40;;;;;;;8.32;1.42;;;18.50;44.40;;;;;;4500188;31;20132;-62
2022/05/04 08:48:08;;;;;;;7.18;1.20;;;18.50;44.00;;;;;;4496970;31;20320;-62
2022/05/04 08:50:39;;;;;;;6.68;1.60;;;18.50;43.40;;;;;;4497076;31;20671;-62
2022/05/04 08:53:07;;;;;;;5.75;1.35;;;18.40;43.00;;;;;;4498135;31;20121;-63
2022/05/04 08:55:36;;;;;;;7.82;1.52;;;18.40;42.80;;;;;;4496440;31;20136;-61
2022/05/04 08:58:02;;;;;;;12.88;1.80;;;18.40;42.50;;;;;;4498648;31;20226;-64
2022/05/04 09:00:28;;;;;;;4.55;1.30;;;18.40;42.30;;;;;;4497539;31;20466;-65
2022/05/04 09:02:54;;;;;;;9.15;1.65;;;18.40;42.20;;;;;;4498353;31;20112;-64
2022/05/04 09:05:20;;;;;;;5.57;1.35;;;18.30;42.10;;;;;;4497670;31;20128;-63
2022/05/04 09:07:53;;;;;;;6.82;1.50;;;18.30;42.00;;;;;;4496824;31;20135;-63
2022/05/04 09:10:20;;;;;;;7.70;1.67;;;18.30;41.80;;;;;;4497862;31;20175;-64
2022/05/04 09:12:47;;;;;;;7.45;1.52;;;18.30;41.90;;;;;;4497552;31;20129;-64
2022/05/04 09:15:27;;;;;;;5.28;1.33;;;18.30;41.90;;;;;;4498394;31;20185;-63
2022/05/04 09:18:00;;;;;;;6.28;1.63;;;18.30;41.60;;;;;;4496148;31;20690;-64
2022/05/04 09:23:17;;;;;;;8.18;1.55;;;18.30;41.60;;;;;;4497884;31;20144;-62
2022/05/04 09:25:43;;;;;;;6.28;1.60;;;18.30;41.40;;;;;;4496323;31;20132;-63
2022/05/04 09:28:13;;;;;;;5.50;1.30;;;18.20;41.50;;;;;;4498247;31;20143;-63
2022/05/04 09:30:49;;;;;;;5.35;1.20;;;18.30;41.70;;;;;;4497184;31;21027;-63
2022/05/04 09:33:23;;;;;;;8.52;1.58;;;18.30;41.80;;;;;;4496862;31;20137;-63
2022/05/04 09:35:50;;;;;;;4.57;1.33;;;18.30;42.00;;;;;;4497491;31;20189;-63
2022/05/04 09:46:40;;;;;;;3.45;1.40;;;18.30;42.70;;;;;;4513015;31;20212;-63
2022/05/04 09:49:11;;;;;;;4.95;1.20;;;18.40;42.60;;;;;;4513727;31;20113;-63
2022/05/04 09:51:40;;;;;;;2.88;1.00;;;18.30;42.60;;;;;;4512026;31;20180;-63
2022/05/04 09:54:14;;;;;;;5.18;1.30;;;18.30;42.60;;;;;;4512855;31;20128;-63
2022/05/04 09:56:40;;;;;;;5.60;1.50;;;18.40;42.70;;;;;;4501927;31;20120;-63
2022/05/04 09:59:08;;;;;;;7.10;1.30;;;18.30;42.90;;;;;;4507816;31;20664;-63
2022/05/04 10:01:34;;;;;;;10.70;1.20;;;18.40;43.20;;;;;;4502504;31;20202;-63
2022/05/04 10:04:02;;;;;;;7.38;1.35;;;18.40;43.30;;;;;;4509971;31;20144;-63
2022/05/04 10:06:28;;;;;;;6.10;1.45;;;18.40;43.50;;;;;;4507804;31;20136;-64
2022/05/04 10:08:54;;;;;;;7.00;1.20;;;18.40;43.70;;;;;;4505657;31;20160;-64
2022/05/04 10:11:21;;;;;;;5.05;1.20;;;18.40;43.80;;;;;;4506000;31;20124;-64
2022/05/04 10:13:51;;;;;;;4.65;1.30;;;18.40;44.00;;;;;;4513968;31;20140;-63
2022/05/04 10:16:18;;;;;;;6.18;1.10;;;18.40;44.10;;;;;;4515927;31;20120;-62
2022/05/04 10:18:47;;;;;;;5.85;1.05;;;18.50;44.20;;;;;;4515842;31;20128;-62
2022/05/04 10:21:15;;;;;;;6.68;0.95;;;18.50;44.20;;;;;;4515962;31;20139;-62
2022/05/04 10:23:46;;;;;;;5.03;1.23;;;18.50;44.30;;;;;;4516815;31;20229;-63
2022/05/04 10:26:13;;;;;;;6.88;1.67;;;18.50;44.30;;;;;;4515770;31;20138;-63
2022/05/04 10:30:29;;;;;;;5.38;1.20;;;18.50;44.40;;;;;;4516468;31;20143;-63
2022/05/04 10:31:28;;;;;;;6.43;1.42;;;18.50;44.40;;;;;;4516258;31;20140;-63
2022/05/04 10:33:56;;;;;;;4.78;1.38;;;18.50;44.40;;;;;;4516052;31;20586;-64
2022/05/04 10:36:29;;;;;;;3.70;1.30;;;18.50;44.40;;;;;;4516720;31;20119;-63
2022/05/04 10:38:58;;;;;;;3.80;1.15;;;18.50;44.50;;;;;;4514694;31;20282;-63
2022/05/04 10:41:37;;;;;;;3.67;1.20;;;18.50;44.50;;;;;;4516455;31;20142;-63
2022/05/04 10:44:09;;;;;;;3.92;1.10;;;18.50;44.70;;;;;;4515757;31;20150;-63
2022/05/04 10:46:38;;;;;;;5.38;1.10;;;18.50;44.70;;;;;;4515650;31;20137;-62
2022/05/04 10:49:07;;;;;;;3.65;1.13;;;18.50;44.80;;;;;;4516309;31;20124;-63
2022/05/04 10:51:38;;;;;;;8.65;1.33;;;18.50;44.80;;;;;;4515339;31;20240;-62
2022/05/04 10:54:11;;;;;;;4.68;1.38;;;18.60;44.90;;;;;;4516381;31;20124;-63
2022/05/04 10:56:50;;;;;;;4.32;0.95;;;18.60;44.80;;;;;;4514428;31;20148;-63
2022/05/04 10:59:35;;;;;;;4.68;1.38;;;18.60;44.80;;;;;;4514987;31;20603;-63
2022/05/04 11:02:09;;;;;;;3.28;1.20;;;18.60;44.60;;;;;;4516117;31;20112;-62
2022/05/04 11:04:40;;;;;;;5.40;1.30;;;18.60;44.50;;;;;;4515234;31;20489;-62
2022/05/04 11:07:07;;;;;;;4.63;1.27;;;18.60;44.50;;;;;;4515915;31;20124;-63
2022/05/04 11:09:42;;;;;;;5.80;1.65;;;18.60;44.30;;;;;;4515357;31;20242;-63
2022/05/04 11:12:10;;;;;;;7.90;1.40;;;18.70;44.10;;;;;;4515743;31;20121;-63
2022/05/04 11:14:37;;;;;;;8.07;1.60;;;18.70;44.20;;;;;;4514812;31;20155;-63
2022/05/04 11:17:12;;;;;;;6.88;1.48;;;18.70;44.00;;;;;;4515083;31;20140;-63
2022/05/04 11:19:45;;;;;;;5.03;1.58;;;18.70;43.80;;;;;;4515753;31;20187;-64
2022/05/04 11:22:13;;;;;;;6.68;1.27;;;18.80;43.80;;;;;;4512684;31;20128;-64
2022/05/04 11:24:40;;;;;;;8.07;1.83;;;18.80;43.70;;;;;;4501010;31;20525;-62
2022/05/04 11:27:06;;;;;;;4.63;1.17;;;18.80;43.70;;;;;;4499011;31;20131;-64
2022/05/04 11:29:33;;;;;;;4.40;1.10;;;18.90;43.60;;;;;;4498664;31;20143;-62
2022/05/04 11:32:04;;;;;;;4.75;1.20;;;19.00;43.50;;;;;;4499287;31;20129;-63
2022/05/04 11:34:38;;;;;;;4.53;1.30;;;19.10;43.50;;;;;;4498248;31;20242;-63
2022/05/04 11:37:07;;;;;;;4.38;1.40;;;19.10;43.30;;;;;;4499003;31;20144;-63
2022/05/04 11:39:35;;;;;;;4.93;1.10;;;19.20;43.10;;;;;;4498391;31;20113;-63
2022/05/04 11:42:02;;;;;;;6.68;1.50;;;19.20;42.90;;;;;;4499239;31;20159;-63
2022/05/04 11:44:29;;;;;;;4.20;1.15;;;19.30;42.90;;;;;;4498954;31;20124;-63
2022/05/04 11:46:57;;;;;;;4.72;1.13;;;19.30;42.80;;;;;;4497019;31;20140;-62
2022/05/04 11:49:25;;;;;;;2.80;1.27;;;19.30;42.60;;;;;;4499424;31;20144;-63
2022/05/04 11:51:52;;;;;;;7.40;1.38;;;19.40;42.50;;;;;;4498446;31;20278;-63
2022/05/04 11:54:20;;;;;;;4.40;1.17;;;19.40;42.40;;;;;;4499154;31;20254;-63
2022/05/04 11:56:46;;;;;;;3.72;1.27;;;19.40;42.40;;;;;;4498367;31;20137;-63
2022/05/04 11:59:12;;;;;;;3.83;1.30;;;19.40;42.20;;;;;;4506670;31;20285;-63
2022/05/04 12:01:38;;;;;;;4.95;1.25;;;19.40;42.00;;;;;;4508320;31;20125;-63
2022/05/04 12:04:05;;;;;;;4.13;1.17;;;19.40;41.90;;;;;;4502451;31;20185;-64
2022/05/04 12:06:33;;;;;;;5.10;1.27;;;19.50;41.70;;;;;;4513256;31;20169;-63
2022/05/04 12:08:59;;;;;;;5.40;1.30;;;19.50;41.60;;;;;;4513439;31;20132;-63
2022/05/04 12:11:28;;;;;;;4.70;1.50;;;19.50;41.60;;;;;;4513648;31;20139;-63
2022/05/04 12:13:56;;;;;;;6.82;1.30;;;19.50;41.70;;;;;;4513689;31;20124;-60
2022/05/04 12:16:23;;;;;;;5.75;1.30;;;19.50;41.70;;;;;;4514295;31;20143;-62
2022/05/04 12:18:49;;;;;;;5.05;1.30;;;19.50;41.50;;;;;;4514452;31;20128;-62
2022/05/04 12:21:22;;;;;;;4.18;1.27;;;19.50;41.30;;;;;;4514000;31;20321;-63
2022/05/04 12:23:50;;;;;;;3.85;1.30;;;19.50;40.90;;;;;;4514748;31;20167;-62
2022/05/04 12:26:17;;;;;;;3.67;1.00;;;19.50;40.80;;;;;;4513687;31;20199;-63
2022/05/04 12:33:08;;;;;;;6.97;1.88;;;19.50;40.90;;;;;;4514395;31;20270;-62
2022/05/04 12:34:23;;;;;;;12.30;1.65;;;19.50;41.00;;;;;;4513710;31;20132;-63
2022/05/04 12:36:52;;;;;;;8.65;1.60;;;19.40;40.90;;;;;;4514409;31;20135;-63
2022/05/04 12:39:21;;;;;;;3.58;1.00;;;19.40;40.90;;;;;;4513849;31;20194;-63
2022/05/04 12:41:48;;;;;;;6.60;1.52;;;19.40;40.70;;;;;;4498673;31;20155;-62
2022/05/04 12:44:15;;;;;;;6.10;1.23;;;19.40;40.80;;;;;;4508584;31;20132;-63
2022/05/04 12:46:51;;;;;;;6.78;1.20;;;19.30;40.60;;;;;;4512975;31;20144;-62
2022/05/04 12:49:20;;;;;;;4.80;1.33;;;19.30;40.70;;;;;;4514301;31;20128;-62
2022/05/04 12:51:47;;;;;;;6.35;1.27;;;19.30;40.90;;;;;;4513303;31;20190;-62
2022/05/04 12:54:16;;;;;;;4.90;1.30;;;19.30;40.80;;;;;;4513879;31;20608;-62
2022/05/04 12:56:46;;;;;;;7.60;1.33;;;19.30;40.70;;;;;;4513503;31;20132;-62
2022/05/04 12:59:12;;;;;;;4.53;1.63;;;19.30;40.70;;;;;;4512440;31;20140;-63
2022/05/04 13:01:39;;;;;;;5.22;1.30;;;19.40;40.70;;;;;;4513776;31;20132;-63
2022/05/04 13:04:04;;;;;;;6.15;1.33;;;19.40;40.70;;;;;;4513419;31;20200;-63
2022/05/04 13:06:30;;;;;;;6.20;1.50;;;19.40;40.60;;;;;;4508365;31;20510;-63
2022/05/04 13:08:56;;;;;;;5.93;1.50;;;19.50;40.60;;;;;;4496587;31;20573;-64
2022/05/04 13:11:26;;;;;;;5.97;1.30;;;19.50;40.60;;;;;;4497745;31;20682;-65
2022/05/04 13:13:52;;;;;;;5.30;1.35;;;19.50;40.40;;;;;;4510014;31;20185;-65
2022/05/04 13:16:18;;;;;;;3.63;1.00;;;19.50;40.40;;;;;;4496231;31;20667;-64
2022/05/04 13:18:44;;;;;;;6.38;1.30;;;19.50;40.40;;;;;;4505680;31;20128;-63
2022/05/04 13:21:11;;;;;;;4.22;1.35;;;19.50;40.40;;;;;;4506414;31;20113;-64
2022/05/04 13:23:37;;;;;;;3.67;1.15;;;19.60;40.40;;;;;;4497556;31;20129;-63
2022/05/04 13:26:03;;;;;;;3.80;1.00;;;19.60;40.70;;;;;;4496840;31;20141;-63
2022/05/04 13:28:29;;;;;;;2.55;1.10;;;19.50;41.00;;;;;;4506730;31;20179;-63
2022/05/04 13:30:55;;;;;;;2.83;1.10;;;19.50;41.20;;;;;;4512414;31;20251;-63